Time;durP1;ratioP1;P1;durP2;ratioP2;P2;SDS_P1;SDS_P2;PMS_P1;PMS_P2;Temp;Humidity;BMP_temperature;BMP_pressure;BME280_temperature;BME280_humidity;BME280_pressure;Samples;Min_cycle;Max_cycle;Signal;HPM_P1;HPM_P2
2022/10/24 00:00:40;;;;;;;0.40;0.25;;;;;;;17.92;53.21;93417.16;5011341;28;20514;-87
2022/10/24 00:03:05;;;;;;;0.10;0.10;;;;;;;17.90;53.27;93416.91;4995865;28;20044;-88
2022/10/24 00:05:30;;;;;;;0.20;0.20;;;;;;;17.91;52.87;93421.13;5016803;28;20044;-87
2022/10/24 00:07:56;;;;;;;0.38;0.20;;;;;;;17.91;53.35;93409.47;5017204;28;20049;-88
2022/10/24 00:10:21;;;;;;;0.10;0.10;;;;;;;17.95;52.88;93420.88;5011458;28;20045;-87
2022/10/24 00:12:47;;;;;;;0.20;0.20;;;;;;;17.93;52.98;93432.31;5029672;28;20040;-87
2022/10/24 00:15:12;;;;;;;0.10;0.10;;;;;;;17.91;52.82;93434.81;5006484;28;20111;-87
2022/10/24 00:17:38;;;;;;;0.60;0.20;;;;;;;17.89;52.88;93442.78;5012570;28;20048;-87
2022/10/24 00:20:04;;;;;;;0.25;0.25;;;;;;;17.90;53.20;93447.00;5031142;28;20056;-87
2022/10/24 00:22:30;;;;;;;0.17;0.10;;;;;;;17.90;53.18;93443.53;5015919;28;20033;-89
2022/10/24 00:24:55;;;;;;;0.10;0.10;;;;;;;17.92;53.06;93436.31;5020017;28;20044;-87
2022/10/24 00:27:21;;;;;;;0.28;0.20;;;;;;;17.91;52.68;93447.75;5035093;28;20124;-87
2022/10/24 00:29:46;;;;;;;1.85;0.20;;;;;;;17.92;52.89;93449.97;5015948;28;20029;-87
2022/10/24 00:32:11;;;;;;;0.20;0.20;;;;;;;17.93;52.60;93442.50;5031955;28;20033;-87
2022/10/24 00:34:37;;;;;;;0.20;0.20;;;;;;;17.88;52.95;93452.22;4996596;28;20049;-86
2022/10/24 00:37:02;;;;;;;0.20;0.20;;;;;;;17.91;53.27;93458.69;5003860;28;20032;-87
2022/10/24 00:39:28;;;;;;;0.20;0.15;;;;;;;17.90;53.00;93457.19;5020772;28;20414;-87
2022/10/24 00:41:55;;;;;;;0.30;0.30;;;;;;;17.89;52.91;93452.97;5007209;28;20034;-86
2022/10/24 00:44:25;;;;;;;1.25;0.20;;;;;;;17.90;53.20;93470.88;4996157;28;20476;-87
2022/10/24 00:46:53;;;;;;;0.10;0.10;;;;;;;17.90;53.01;93468.88;5012185;28;20044;-89
2022/10/24 00:49:22;;;;;;;0.20;0.20;;;;;;;17.91;53.04;93467.63;5014282;28;20090;-87
2022/10/24 00:51:47;;;;;;;0.63;0.15;;;;;;;17.89;52.78;93469.38;4999303;28;20079;-87
2022/10/24 00:54:13;;;;;;;0.82;0.20;;;;;;;17.90;52.62;93471.63;5015058;28;20446;-87
2022/10/24 00:56:41;;;;;;;0.20;0.20;;;;;;;17.88;52.72;93476.84;5014982;28;20033;-88
2022/10/24 00:59:07;;;;;;;0.20;0.20;;;;;;;17.90;53.01;93479.81;4999587;28;20412;-87
2022/10/24 01:01:33;;;;;;;0.10;0.10;;;;;;;17.93;52.74;93486.28;5028597;28;20064;-87
2022/10/24 01:03:58;;;;;;;0.10;0.10;;;;;;;17.91;52.71;93491.50;5015831;28;20041;-87
2022/10/24 01:06:45;;;;;;;0.20;0.20;;;;;;;17.92;52.96;93493.00;5013864;28;20033;-87
2022/10/24 01:09:38;;;;;;;0.10;0.10;;;;;;;17.90;52.98;93481.81;5046989;28;20138;-87
2022/10/24 01:12:18;;;;;;;0.10;0.10;;;;;;;17.91;53.04;93494.25;5014693;28;20041;-87
2022/10/24 01:15:01;;;;;;;0.22;0.20;;;;;;;17.89;52.91;93507.66;5015135;28;20326;-87
2022/10/24 01:17:47;;;;;;;0.30;0.20;;;;;;;17.90;52.64;93512.63;5027837;28;20096;-87
2022/10/24 01:20:44;;;;;;;0.20;0.20;;;;;;;17.90;52.86;93518.09;5005268;28;20053;-87
2022/10/24 01:23:34;;;;;;;0.20;0.20;;;;;;;17.89;52.84;93519.34;5033763;28;20099;-87
2022/10/24 01:26:30;;;;;;;0.30;0.20;;;;;;;17.90;53.30;93522.84;5047056;28;20045;-87
2022/10/24 01:29:07;;;;;;;0.63;0.20;;;;;;;17.90;52.88;93520.09;5048952;28;20124;-89
2022/10/24 01:31:42;;;;;;;0.20;0.20;;;;;;;17.89;52.75;93515.88;5026811;28;20050;-87
2022/10/24 01:34:12;;;;;;;0.20;0.20;;;;;;;17.89;52.72;93513.13;5011373;28;20045;-87
2022/10/24 01:36:50;;;;;;;0.20;0.20;;;;;;;17.88;53.15;93522.59;5010129;28;20152;-87
2022/10/24 01:39:17;;;;;;;0.30;0.22;;;;;;;17.89;52.87;93533.03;5028168;28;20071;-87
2022/10/24 01:41:42;;;;;;;0.88;0.30;;;;;;;17.89;53.24;93530.28;5014558;28;20033;-88
2022/10/24 01:44:24;;;;;;;0.22;0.20;;;;;;;17.91;53.00;93527.81;5013882;28;20041;-87
2022/10/24 01:46:54;;;;;;;0.30;0.20;;;;;;;17.89;52.86;93529.56;5013692;28;20025;-87
2022/10/24 01:49:20;;;;;;;0.30;0.30;;;;;;;17.89;52.95;93527.56;4997340;28;20044;-86
2022/10/24 01:51:47;;;;;;;0.57;0.30;;;;;;;17.89;53.77;93522.09;4997999;28;20049;-86
2022/10/24 01:54:12;;;;;;;0.55;0.40;;;;;;;17.89;53.36;93524.06;5030405;28;20480;-90
2022/10/24 01:56:37;;;;;;;0.55;0.35;;;;;;;17.88;53.26;93520.59;5010749;28;20034;-87
2022/10/24 01:59:07;;;;;;;0.57;0.40;;;;;;;17.89;53.15;93524.81;5010101;28;20223;-87
2022/10/24 02:01:33;;;;;;;0.77;0.50;;;;;;;17.88;53.84;93528.06;5006970;28;20049;-88
2022/10/24 02:04:01;;;;;;;0.40;0.40;;;;;;;17.88;53.19;93528.81;4994926;28;20042;-87
2022/10/24 02:06:29;;;;;;;0.63;0.50;;;;;;;17.89;53.14;93535.75;5006439;28;20047;-87
2022/10/24 02:08:57;;;;;;;0.70;0.40;;;;;;;17.89;53.05;93535.75;5013940;28;20079;-87
2022/10/24 02:11:22;;;;;;;0.60;0.50;;;;;;;17.88;53.41;93533.53;5026806;28;20049;-87
2022/10/24 02:14:09;;;;;;;0.95;0.50;;;;;;;17.89;53.57;93532.28;5013607;28;20040;-87
2022/10/24 02:16:35;;;;;;;0.40;0.40;;;;;;;17.89;52.90;93537.75;5026538;28;20488;-87
2022/10/24 02:19:00;;;;;;;0.43;0.43;;;;;;;17.88;53.52;93533.53;5019412;28;20083;-87
2022/10/24 02:21:52;;;;;;;0.40;0.30;;;;;;;17.88;53.26;93534.28;5008183;28;20052;-86
2022/10/24 02:24:20;;;;;;;0.30;0.30;;;;;;;17.88;53.05;93549.94;5010489;28;20042;-89
2022/10/24 02:27:02;;;;;;;0.90;0.70;;;;;;;17.87;53.17;93543.72;5029519;28;20033;-87
2022/10/24 02:29:33;;;;;;;1.52;0.40;;;;;;;17.87;53.10;93532.78;5030934;28;20112;-87
2022/10/24 02:31:58;;;;;;;0.40;0.40;;;;;;;17.87;53.29;93535.53;4997302;28;20041;-88
2022/10/24 02:34:25;;;;;;;0.30;0.30;;;;;;;17.89;53.04;93537.75;4996998;28;20108;-87
2022/10/24 02:36:51;;;;;;;0.60;0.40;;;;;;;17.88;53.06;93539.00;5019537;28;20420;-86
2022/10/24 02:39:17;;;;;;;0.77;0.50;;;;;;;17.87;53.19;93540.25;5015921;28;20431;-87
2022/10/24 02:41:43;;;;;;;0.30;0.30;;;;;;;17.87;53.15;93538.25;5016640;28;20040;-87
2022/10/24 02:44:08;;;;;;;0.63;0.40;;;;;;;17.90;52.98;93547.44;4993490;28;20046;-87
2022/10/24 02:46:34;;;;;;;0.63;0.50;;;;;;;17.88;52.92;93537.00;5010452;28;20056;-87
2022/10/24 02:49:00;;;;;;;0.30;0.30;;;;;;;17.88;52.81;93545.22;4993256;28;20504;-87
2022/10/24 02:51:28;;;;;;;0.88;0.40;;;;;;;17.88;53.32;93558.88;4995258;28;20045;-87
2022/10/24 02:53:54;;;;;;;1.13;0.47;;;;;;;17.88;53.12;93561.63;5013379;28;20052;-87
2022/10/24 02:56:19;;;;;;;1.00;0.40;;;;;;;17.90;53.15;93566.59;5012223;28;20454;-86
2022/10/24 02:58:45;;;;;;;0.50;0.40;;;;;;;17.88;53.25;93569.09;5013265;28;20407;-87
2022/10/24 03:01:10;;;;;;;1.15;0.50;;;;;;;17.88;53.14;93569.81;5012384;28;20037;-87
2022/10/24 03:03:35;;;;;;;0.60;0.50;;;;;;;17.88;53.31;93572.56;5011930;28;20507;-87
2022/10/24 03:06:01;;;;;;;0.70;0.50;;;;;;;17.88;53.59;93571.81;4996510;28;20075;-87
2022/10/24 03:08:26;;;;;;;0.63;0.38;;;;;;;17.87;53.51;93578.53;5012185;28;20095;-88
2022/10/24 03:10:51;;;;;;;0.75;0.40;;;;;;;17.88;53.38;93556.16;5012825;28;20079;-87
2022/10/24 03:13:17;;;;;;;0.70;0.40;;;;;;;17.89;53.37;93562.38;5028771;28;20045;-87
2022/10/24 03:15:42;;;;;;;0.85;0.70;;;;;;;17.88;53.21;93556.16;5045223;28;20033;-87
2022/10/24 03:18:08;;;;;;;0.55;0.38;;;;;;;17.88;53.37;93552.69;5028749;28;20044;-89
2022/10/24 03:20:33;;;;;;;0.60;0.38;;;;;;;17.87;53.30;93551.94;5007063;28;20051;-87
2022/10/24 03:22:59;;;;;;;0.20;0.20;;;;;;;17.88;53.63;93544.47;5015685;28;20402;-87
2022/10/24 03:25:24;;;;;;;0.25;0.25;;;;;;;17.86;53.32;93555.91;5031726;28;20411;-88
2022/10/24 03:27:49;;;;;;;0.57;0.40;;;;;;;17.86;53.18;93552.44;5031868;28;20086;-87
2022/10/24 03:30:15;;;;;;;0.57;0.50;;;;;;;17.88;52.97;93542.47;5031506;28;20487;-88
2022/10/24 03:32:40;;;;;;;4.40;0.50;;;;;;;17.88;53.04;93541.72;5015245;28;20044;-87
2022/10/24 03:35:06;;;;;;;0.47;0.38;;;;;;;17.87;53.32;93543.72;5031861;28;20047;-87
2022/10/24 03:37:31;;;;;;;0.63;0.30;;;;;;;17.89;52.91;93532.28;5048571;28;20055;-87
2022/10/24 03:39:57;;;;;;;0.65;0.28;;;;;;;17.88;53.24;93528.81;5032502;28;20040;-87
2022/10/24 03:42:22;;;;;;;0.40;0.40;;;;;;;17.87;53.46;93532.78;5030499;28;20064;-86
2022/10/24 03:44:47;;;;;;;0.40;0.35;;;;;;;17.92;53.08;93536.75;5029291;28;20037;-87
2022/10/24 03:47:13;;;;;;;1.65;0.40;;;;;;;17.92;53.17;93525.81;5048500;28;20068;-87
2022/10/24 03:49:38;;;;;;;2.70;0.55;;;;;;;17.90;53.43;93526.31;5048345;28;20029;-88
2022/10/24 03:52:04;;;;;;;0.35;0.30;;;;;;;17.92;53.02;93512.13;5023223;28;20048;-88
2022/10/24 03:54:29;;;;;;;5.78;0.50;;;;;;;17.92;53.21;93509.41;5016090;28;20036;-86
2022/10/24 03:56:55;;;;;;;0.40;0.30;;;;;;;17.90;53.27;93507.16;5032067;28;20498;-88
2022/10/24 03:59:20;;;;;;;0.45;0.28;;;;;;;17.92;53.15;93504.69;5066296;28;20162;-88
2022/10/24 04:01:45;;;;;;;3.03;0.38;;;;;;;17.94;53.32;93501.44;5031557;28;20434;-89
2022/10/24 04:04:11;;;;;;;0.30;0.30;;;;;;;17.92;53.11;93496.47;5028757;28;20036;-86
2022/10/24 04:06:36;;;;;;;1.10;0.40;;;;;;;17.94;53.29;93501.44;5029855;28;20048;-85
2022/10/24 04:09:02;;;;;;;0.65;0.50;;;;;;;17.91;53.46;93488.78;5030820;28;20029;-84
2022/10/24 04:11:28;;;;;;;0.52;0.25;;;;;;;17.93;53.26;93494.47;5011434;28;20040;-85
2022/10/24 04:13:53;;;;;;;0.50;0.40;;;;;;;17.89;52.94;93486.53;5041956;28;20101;-85
2022/10/24 04:16:19;;;;;;;1.55;0.20;;;;;;;17.90;52.98;93476.34;5038540;28;20752;-85
2022/10/24 04:18:44;;;;;;;174.38;29.65;;;;;;;17.88;54.05;93479.59;5024721;28;20437;-85
2022/10/24 04:21:10;;;;;;;93.72;13.85;;;;;;;17.87;54.44;93485.56;5033525;28;20045;-86
2022/10/24 04:23:39;;;;;;;100.60;14.68;;;;;;;17.87;54.72;93486.28;4994355;28;20045;-86
2022/10/24 04:26:07;;;;;;;76.07;14.90;;;;;;;17.86;55.16;93482.06;4993488;28;20048;-86
2022/10/24 04:28:33;;;;;;;21.33;7.03;;;;;;;17.85;55.52;93485.31;5005827;28;20049;-86
2022/10/24 04:30:58;;;;;;;29.33;10.70;;;;;;;17.86;56.05;93486.81;5015573;28;20098;-85
2022/10/24 04:33:24;;;;;;;22.17;6.75;;;;;;;17.87;55.93;93486.28;5008910;28;20297;-86
2022/10/24 04:35:49;;;;;;;15.63;4.07;;;;;;;17.88;56.11;93479.59;5025429;28;20033;-90
2022/10/24 04:38:15;;;;;;;8.45;3.10;;;;;;;17.84;56.14;93486.56;5024475;28;20081;-89
2022/10/24 04:40:40;;;;;;;8.23;4.22;;;;;;;17.84;56.41;93490.03;4994321;28;20124;-91
2022/10/24 04:43:06;;;;;;;13.48;7.88;;;;;;;17.87;56.50;93491.75;4993925;28;20033;-88
2022/10/24 04:45:32;;;;;;;79.57;60.08;;;;;;;17.87;55.98;93488.28;5054179;28;20032;-87
2022/10/24 04:47:58;;;;;;;45.42;22.45;;;;;;;17.88;56.45;93496.00;5027708;28;20037;-86
2022/10/24 04:50:23;;;;;;;23.85;12.35;;;;;;;17.86;56.16;93493.00;4990031;28;20372;-87
2022/10/24 04:52:49;;;;;;;23.98;11.90;;;;;;;17.83;56.48;93496.75;4993059;28;20270;-85
2022/10/24 04:55:14;;;;;;;49.10;17.77;;;;;;;17.84;56.49;93495.50;5012460;28;21046;-83
2022/10/24 04:57:45;;;;;;;130.57;42.55;;;;;;;17.81;56.54;93502.72;5010070;28;20403;-85
2022/10/24 05:00:12;;;;;;;116.72;30.08;;;;;;;17.83;56.53;93491.28;5021019;28;20050;-84
2022/10/24 05:02:41;;;;;;;71.38;25.05;;;;;;;17.85;56.34;93497.00;5026224;28;20041;-87
2022/10/24 05:05:08;;;;;;;40.08;17.88;;;;;;;17.84;56.82;93505.69;5013649;28;20033;-86
2022/10/24 05:07:35;;;;;;;58.28;23.38;;;;;;;17.83;56.97;93504.22;4995162;28;20045;-88
2022/10/24 05:10:03;;;;;;;52.53;22.92;;;;;;;17.83;57.30;93510.44;4977275;28;20073;-87
2022/10/24 05:12:28;;;;;;;65.95;22.02;;;;;;;17.83;57.13;93496.00;4988219;28;20054;-87
2022/10/24 05:14:54;;;;;;;44.88;20.40;;;;;;;17.81;57.35;93497.25;4991441;28;20272;-86
2022/10/24 05:17:19;;;;;;;57.78;23.52;;;;;;;17.86;56.98;93495.00;5024069;28;20108;-87
2022/10/24 05:19:45;;;;;;;53.45;23.50;;;;;;;17.82;57.54;93487.06;4997031;28;20107;-87
2022/10/24 05:22:10;;;;;;;49.50;20.17;;;;;;;17.81;57.48;93491.03;5027795;28;20041;-88
2022/10/24 05:24:35;;;;;;;41.17;21.08;;;;;;;17.86;57.21;93492.28;5020532;28;20388;-89
2022/10/24 05:27:01;;;;;;;36.85;19.33;;;;;;;17.78;57.73;93489.31;4996664;28;20055;-89
2022/10/24 05:29:26;;;;;;;51.67;21.35;;;;;;;17.76;57.83;93494.53;5013707;28;20111;-89
2022/10/24 05:31:52;;;;;;;55.53;26.17;;;;;;;17.79;57.76;93485.34;5014639;28;20087;-88
2022/10/24 05:34:17;;;;;;;44.35;20.50;;;;;;;17.81;57.67;93488.31;5003587;28;20045;-89
2022/10/24 05:36:43;;;;;;;37.08;15.68;;;;;;;17.77;58.52;93479.63;5018812;28;21677;-88
2022/10/24 05:39:09;;;;;;;30.45;15.32;;;;;;;17.76;58.34;93467.19;5042312;28;20080;-87
2022/10/24 05:41:34;;;;;;;36.75;15.73;;;;;;;17.74;57.98;93467.72;5034200;28;20056;-86
2022/10/24 05:44:00;;;;;;;28.42;14.50;;;;;;;17.73;58.22;93482.66;5035915;28;20030;-88
2022/10/24 05:46:25;;;;;;;32.33;15.02;;;;;;;17.73;58.51;93490.09;5033247;28;20034;-87
2022/10/24 05:48:51;;;;;;;33.50;17.15;;;;;;;17.69;58.66;93504.03;5030187;28;20427;-88
2022/10/24 05:51:16;;;;;;;40.15;19.15;;;;;;;17.72;58.71;93497.56;5015189;28;20067;-89
2022/10/24 05:53:42;;;;;;;40.25;21.08;;;;;;;17.77;58.46;93485.09;5028866;28;20099;-89
2022/10/24 05:56:07;;;;;;;26.77;16.60;;;;;;;17.76;58.47;93487.09;5018812;28;20794;-86
2022/10/24 05:58:33;;;;;;;28.35;16.15;;;;;;;17.79;57.87;93483.34;5037015;28;20396;-85
2022/10/24 06:00:58;;;;;;;41.05;21.17;;;;;;;17.79;57.77;93482.59;5044716;28;20045;-86
2022/10/24 06:03:23;;;;;;;57.13;30.48;;;;;;;17.78;57.83;93479.13;5042304;28;20123;-86
2022/10/24 06:05:49;;;;;;;54.08;27.33;;;;;;;17.84;57.68;93461.94;5032912;28;20323;-87
2022/10/24 06:08:15;;;;;;;81.10;42.15;;;;;;;17.90;58.22;93463.41;5034405;28;20044;-86
2022/10/24 06:10:44;;;;;;;73.88;34.13;;;;;;;17.88;57.61;93465.16;5017003;28;20079;-91
2022/10/24 06:13:09;;;;;;;60.25;32.05;;;;;;;17.93;57.27;93465.13;5017813;28;20047;-87
2022/10/24 06:15:35;;;;;;;70.10;35.55;;;;;;;17.94;57.15;93457.69;5027645;28;20450;-87
2022/10/24 06:18:00;;;;;;;69.47;35.25;;;;;;;17.97;57.34;93462.13;5019712;28;20400;-88
2022/10/24 06:20:26;;;;;;;71.40;36.30;;;;;;;18.02;56.99;93466.81;5032982;28;20376;-87
2022/10/24 06:22:51;;;;;;;72.70;37.63;;;;;;;17.99;57.37;93463.09;5029715;28;20388;-87
2022/10/24 06:25:17;;;;;;;70.55;38.33;;;;;;;18.01;57.14;93465.31;5040372;28;20064;-87
2022/10/24 06:27:42;;;;;;;65.70;35.90;;;;;;;18.03;56.60;93465.56;5032607;28;20093;-89
2022/10/24 06:30:09;;;;;;;63.65;35.67;;;;;;;18.03;56.95;93471.03;5015731;28;20041;-89
2022/10/24 06:32:34;;;;;;;59.45;35.95;;;;;;;18.03;56.78;93482.72;5033570;28;20046;-91
2022/10/24 06:35:00;;;;;;;60.75;36.75;;;;;;;18.02;56.80;93477.75;5011923;28;20051;-88
2022/10/24 06:37:26;;;;;;;72.45;37.28;;;;;;;18.01;57.01;93476.25;4994538;28;20045;-85
2022/10/24 06:39:52;;;;;;;90.72;30.85;;;;;;;18.01;57.43;93474.28;5006903;28;20630;-91
2022/10/24 06:42:17;;;;;;;78.57;32.40;;;;;;;17.98;57.70;93488.22;5009313;28;20450;-88
2022/10/24 06:44:43;;;;;;;115.82;45.55;;;;;;;17.95;58.41;93495.47;5019054;28;20041;-88
2022/10/24 06:47:08;;;;;;;88.65;34.85;;;;;;;17.89;58.82;93489.28;5035153;28;20049;-89
2022/10/24 06:49:35;;;;;;;42.53;19.33;;;;;;;17.91;59.18;93480.56;5013547;28;20339;-89
2022/10/24 06:52:00;;;;;;;33.88;13.93;;;;;;;17.90;59.05;93476.34;5028867;28;20033;-87
2022/10/24 06:54:26;;;;;;;44.03;16.05;;;;;;;17.91;59.22;93488.78;5021291;28;20099;-89
2022/10/24 06:56:52;;;;;;;35.42;16.88;;;;;;;17.89;59.21;93480.31;5013264;28;20033;-87
2022/10/24 06:59:17;;;;;;;51.88;18.70;;;;;;;17.85;59.14;93486.06;5012330;28;20032;-86
2022/10/24 07:01:43;;;;;;;51.63;20.20;;;;;;;17.86;59.35;93484.81;5035137;28;20108;-87
2022/10/24 07:04:09;;;;;;;43.47;19.80;;;;;;;17.83;59.73;93496.75;5026412;28;20033;-89
2022/10/24 07:06:34;;;;;;;56.45;21.75;;;;;;;17.76;60.09;93503.50;5035996;28;20128;-90
2022/10/24 07:09:00;;;;;;;70.65;29.17;;;;;;;17.78;60.10;93514.66;5007067;28;20399;-87
2022/10/24 07:11:26;;;;;;;67.38;26.42;;;;;;;17.76;59.88;93521.88;4994693;28;20106;-86
2022/10/24 07:13:52;;;;;;;69.72;26.63;;;;;;;17.77;59.98;93509.69;5005371;28;20036;-89
2022/10/24 07:16:18;;;;;;;52.45;18.45;;;;;;;17.78;60.08;93516.66;5012490;28;20114;-88
2022/10/24 07:18:43;;;;;;;62.60;24.02;;;;;;;17.78;60.33;93517.41;5024499;28;20048;-87
2022/10/24 07:21:13;;;;;;;86.93;35.58;;;;;;;17.80;60.19;93514.91;5031172;28;20458;-87
2022/10/24 07:23:39;;;;;;;110.97;45.92;;;;;;;17.85;59.89;93527.06;5012086;28;20826;-86
2022/10/24 07:26:09;;;;;;;161.02;78.50;;;;;;;17.87;59.52;93523.84;5010115;28;20102;-86
2022/10/24 07:28:34;;;;;;;179.43;93.18;;;;;;;17.87;59.34;93532.78;5009182;28;20099;-86
2022/10/24 07:31:00;;;;;;;158.27;81.18;;;;;;;17.89;58.97;93533.03;4999340;28;20036;-87
2022/10/24 07:33:26;;;;;;;166.55;81.70;;;;;;;17.89;59.18;93530.28;5009027;28;20044;-89
2022/10/24 07:35:51;;;;;;;182.63;86.22;;;;;;;17.89;59.00;93527.56;5029664;28;20068;-87
2022/10/24 07:38:17;;;;;;;194.40;92.25;;;;;;;17.90;58.82;93525.56;5014762;28;20053;-86
2022/10/24 07:40:42;;;;;;;191.73;102.25;;;;;;;17.92;58.94;93532.03;5005071;28;20399;-86
2022/10/24 07:43:08;;;;;;;196.90;96.75;;;;;;;17.94;58.83;93524.06;5024100;28;20417;-87
2022/10/24 07:45:33;;;;;;;249.60;118.57;;;;;;;17.95;58.94;93524.81;4992921;28;20549;-87
2022/10/24 07:47:59;;;;;;;258.80;117.25;;;;;;;17.94;58.40;93523.31;5010334;28;20045;-89
2022/10/24 07:50:25;;;;;;;247.25;115.72;;;;;;;17.95;58.27;93530.28;5012423;28;20060;-89
2022/10/24 07:52:51;;;;;;;242.65;109.93;;;;;;;17.97;58.72;93528.50;5011177;28;20100;-87
2022/10/24 07:55:16;;;;;;;207.98;108.72;;;;;;;17.97;58.72;93525.03;5011545;28;20199;-88
2022/10/24 07:57:42;;;;;;;208.85;110.55;;;;;;;17.99;58.40;93530.72;5017611;28;20048;-86
2022/10/24 08:00:08;;;;;;;217.07;105.40;;;;;;;17.97;58.59;93525.03;5020699;28;20033;-88
2022/10/24 08:02:34;;;;;;;271.52;117.53;;;;;;;17.98;58.45;93516.31;4994127;28;20539;-87
2022/10/24 08:04:59;;;;;;;245.63;113.30;;;;;;;17.99;58.93;93517.06;5020795;28;20117;-86
2022/10/24 08:07:25;;;;;;;233.88;130.07;;;;;;;18.03;58.68;93525.75;5010437;28;20459;-87
2022/10/24 08:09:50;;;;;;;243.77;127.38;;;;;;;18.04;58.44;93517.03;5003942;28;20049;-88
2022/10/24 08:12:16;;;;;;;211.43;121.25;;;;;;;18.02;58.21;93514.06;5009458;28;20044;-88
2022/10/24 08:14:42;;;;;;;206.85;116.75;;;;;;;18.00;58.49;93513.81;4996036;28;20037;-89
2022/10/24 08:17:08;;;;;;;194.23;109.88;;;;;;;17.99;58.65;93508.84;5007691;28;20411;-86
2022/10/24 08:19:33;;;;;;;209.35;106.38;;;;;;;18.03;58.46;93510.06;4997052;28;20071;-88
2022/10/24 08:21:59;;;;;;;184.05;97.82;;;;;;;18.04;58.19;93502.59;5046790;28;20037;-89
2022/10/24 08:24:25;;;;;;;168.43;89.13;;;;;;;18.05;58.58;93504.09;5018018;28;20036;-89
2022/10/24 08:26:51;;;;;;;166.48;94.10;;;;;;;18.05;57.84;93515.78;5044594;28;20503;-88
2022/10/24 08:29:21;;;;;;;169.15;89.13;;;;;;;18.07;58.25;93520.75;5031804;28;20052;-91
2022/10/24 08:31:53;;;;;;;142.65;83.72;;;;;;;18.03;58.20;93523.00;5040307;28;20032;-89
2022/10/24 08:34:19;;;;;;;150.48;80.60;;;;;;;18.04;57.98;93519.03;5028781;28;20403;-88
2022/10/24 08:36:44;;;;;;;129.68;76.38;;;;;;;18.07;58.10;93523.47;5019139;28;20040;-89
2022/10/24 08:39:10;;;;;;;125.72;71.43;;;;;;;18.03;58.35;93520.28;5051083;28;20457;-87
2022/10/24 08:41:37;;;;;;;132.18;75.10;;;;;;;18.08;58.23;93522.97;5041353;28;20058;-89
2022/10/24 08:44:06;;;;;;;122.80;66.07;;;;;;;18.05;58.32;93525.97;5029016;28;20090;-89
2022/10/24 08:46:49;;;;;;;133.60;75.35;;;;;;;18.10;58.34;93511.53;5034645;28;20025;-89
2022/10/24 08:49:26;;;;;;;110.70;66.28;;;;;;;18.07;57.96;93512.53;5019094;28;20032;-88
2022/10/24 08:51:54;;;;;;;121.78;62.95;;;;;;;18.08;58.03;93508.56;5048266;28;20569;-87
2022/10/24 08:54:26;;;;;;;80.22;42.53;;;;;;;18.06;58.45;93517.28;5046312;28;20136;-89
2022/10/24 08:56:53;;;;;;;82.38;42.85;;;;;;;18.04;58.62;93511.56;5030330;28;20040;-90
2022/10/24 08:59:19;;;;;;;71.35;30.13;;;;;;;18.03;58.70;93506.59;5033523;28;20423;-90
2022/10/24 09:01:50;;;;;;;71.70;28.45;;;;;;;18.03;59.80;93501.13;5018088;28;20041;-88
2022/10/24 09:04:18;;;;;;;44.05;22.00;;;;;;;18.04;60.08;93491.66;5031498;28;20049;-87
2022/10/24 09:06:43;;;;;;;50.72;24.02;;;;;;;18.04;60.28;93499.88;5018914;28;20491;-88
2022/10/24 09:09:11;;;;;;;79.50;26.60;;;;;;;18.02;60.70;93492.16;5049702;28;20086;-86
2022/10/24 09:11:48;;;;;;;81.47;27.80;;;;;;;18.00;60.93;93481.00;5066930;28;20049;-87
2022/10/24 09:14:16;;;;;;;82.00;35.58;;;;;;;18.00;60.71;93481.00;5041155;28;20043;-87
2022/10/24 09:16:43;;;;;;;101.65;39.78;;;;;;;18.01;60.66;93485.22;5030398;28;20191;-86
2022/10/24 09:19:12;;;;;;;79.43;29.85;;;;;;;17.98;61.90;93483.50;5035874;28;20033;-86
2022/10/24 09:21:38;;;;;;;74.57;23.67;;;;;;;17.98;62.33;93482.75;5007692;28;20115;-87
2022/10/24 09:24:04;;;;;;;46.72;18.95;;;;;;;17.96;62.12;93480.53;5011586;28;20080;-86
2022/10/24 09:26:29;;;;;;;35.72;19.45;;;;;;;17.99;61.81;93484.22;4996976;28;20040;-87
2022/10/24 09:28:55;;;;;;;50.20;18.30;;;;;;;17.99;62.28;93482.25;5016497;28;20552;-86
2022/10/24 09:31:23;;;;;;;46.15;21.67;;;;;;;17.98;61.96;93480.75;5013430;28;20040;-89
2022/10/24 09:33:49;;;;;;;52.30;18.90;;;;;;;17.98;61.97;93471.81;5012961;28;20092;-89
2022/10/24 09:36:15;;;;;;;42.05;17.83;;;;;;;17.98;62.98;93480.00;5010216;28;20041;-91
2022/10/24 09:38:41;;;;;;;41.42;18.95;;;;;;;18.00;62.87;93480.25;5016642;28;20033;-92
2022/10/24 09:41:09;;;;;;;44.20;21.27;;;;;;;17.98;63.28;93482.75;5015843;28;20048;-91
2022/10/24 09:43:42;;;;;;;43.03;24.63;;;;;;;17.98;63.08;93480.00;5049716;28;20052;-90
2022/10/24 09:46:20;;;;;;;50.30;22.85;;;;;;;17.99;62.80;93495.16;5044893;28;20083;-91
2022/10/24 09:49:18;;;;;;;38.50;18.35;;;;;;;17.96;62.29;93483.28;5042133;28;20059;-93
2022/10/24 09:51:48;;;;;;;48.30;23.08;;;;;;;17.95;62.80;93490.00;5044759;28;20044;-94
2022/10/24 09:54:23;;;;;;;72.90;26.13;;;;;;;17.98;62.49;93488.22;5026515;28;20044;-92
2022/10/24 09:56:58;;;;;;;105.18;38.95;;;;;;;17.98;62.31;93482.75;5066311;28;20068;-92
2022/10/24 09:59:45;;;;;;;85.88;37.80;;;;;;;18.01;62.19;93481.72;5017738;28;20782;-93
2022/10/24 10:02:25;;;;;;;80.18;36.55;;;;;;;18.02;62.12;93485.97;5013072;28;20739;-91
2022/10/24 10:05:13;;;;;;;76.07;34.80;;;;;;;18.01;62.03;93485.22;4998473;28;20093;-89
2022/10/24 10:07:47;;;;;;;89.07;36.72;;;;;;;18.04;61.87;93492.41;5027639;28;20388;-94
2022/10/24 10:10:18;;;;;;;73.47;36.60;;;;;;;18.04;61.79;93488.94;4972451;28;20034;-92
2022/10/24 10:13:13;;;;;;;81.93;41.10;;;;;;;18.06;61.73;93487.19;5023758;28;20026;-90
2022/10/24 10:16:51;;;;;;;90.60;36.15;;;;;;;18.07;61.69;93469.50;5041844;28;20037;-91
2022/10/24 10:19:36;;;;;;;84.80;42.03;;;;;;;18.06;61.38;93468.03;4969282;28;20051;-92
2022/10/24 10:22:06;;;;;;;97.05;60.17;;;;;;;18.08;61.10;93462.81;4986690;28;20104;-91
2022/10/24 10:24:37;;;;;;;98.00;52.45;;;;;;;18.11;61.09;93474.72;4959527;28;20038;-91
2022/10/24 10:27:34;;;;;;;83.35;43.38;;;;;;;18.09;60.95;93472.50;4992427;28;20142;-91
2022/10/24 10:30:15;;;;;;;75.25;40.50;;;;;;;18.12;61.17;93465.25;4956563;28;20038;-90
2022/10/24 10:33:11;;;;;;;232.75;169.40;;;;;;;18.11;60.77;93469.25;5000810;28;20136;-89
2022/10/24 10:35:52;;;;;;;111.28;72.53;;;;;;;18.14;60.79;93471.72;4982367;28;20046;-91
2022/10/24 10:38:29;;;;;;;68.78;38.78;;;;;;;18.13;60.90;93456.56;4963026;28;20125;-91
2022/10/24 10:41:02;;;;;;;73.40;41.28;;;;;;;18.13;60.76;93461.28;4987253;28;20026;-91
2022/10/24 10:43:49;;;;;;;66.25;36.70;;;;;;;18.13;61.08;93461.28;4965259;28;20050;-90
2022/10/24 10:46:28;;;;;;;67.93;38.50;;;;;;;18.15;60.72;93458.78;4955377;28;20069;-90
2022/10/24 10:49:15;;;;;;;60.70;35.78;;;;;;;18.14;60.74;93460.78;4971443;28;20044;-91
2022/10/24 10:51:59;;;;;;;87.07;37.15;;;;;;;18.18;60.43;93446.84;4956452;28;20046;-91
2022/10/24 10:54:36;;;;;;;72.53;36.10;;;;;;;18.20;60.45;93462.72;4942157;28;20046;-88
2022/10/24 10:57:17;;;;;;;67.10;36.80;;;;;;;18.17;60.64;93461.00;5049528;28;20044;-94
2022/10/24 11:00:07;;;;;;;80.63;39.75;;;;;;;18.19;60.40;93458.50;5049835;28;20036;-92
2022/10/24 11:02:51;;;;;;;79.90;41.20;;;;;;;18.20;60.37;93452.50;5010837;28;20036;-91
2022/10/24 11:05:32;;;;;;;86.93;39.97;;;;;;;18.19;60.42;93453.03;5048962;28;20027;-90
2022/10/24 11:08:06;;;;;;;78.22;42.15;;;;;;;18.17;60.52;93448.06;5020698;28;20938;-89
2022/10/24 11:10:39;;;;;;;87.47;41.35;;;;;;;18.19;60.59;93444.84;5068780;28;20039;-89
2022/10/24 11:13:07;;;;;;;94.68;40.65;;;;;;;18.20;60.24;93429.88;5007245;28;20030;-88
2022/10/24 11:15:34;;;;;;;85.82;47.03;;;;;;;18.20;60.36;93436.09;4990006;28;20140;-88
2022/10/24 11:18:05;;;;;;;93.28;46.90;;;;;;;18.20;60.03;93438.81;4991683;28;20041;-89
2022/10/24 11:20:33;;;;;;;110.03;53.40;;;;;;;18.22;60.17;93438.31;4973197;28;20060;-88
2022/10/24 11:23:28;;;;;;;144.95;70.05;;;;;;;18.20;60.33;93436.09;4956910;28;20052;-88
2022/10/24 11:26:09;;;;;;;147.35;68.68;;;;;;;18.23;59.95;93426.13;4958865;28;20042;-88
2022/10/24 11:28:42;;;;;;;143.68;79.45;;;;;;;18.24;60.12;93425.63;5011373;28;20127;-88
2022/10/24 11:31:10;;;;;;;188.80;91.07;;;;;;;18.26;60.09;93425.13;4981929;28;20038;-88